Time;durP1;ratioP1;P1;durP2;ratioP2;P2;SDS_P1;SDS_P2;PMS_P1;PMS_P2;Temp;Humidity;BMP_temperature;BMP_pressure;BME280_temperature;BME280_humidity;BME280_pressure;Samples;Min_cycle;Max_cycle;Signal;HPM_P1;HPM_P2
2022/06/05 00:01:17;;;;;;;3.70;3.40;;;;;;;;;;5031509;28;20240;-83
2022/06/05 00:03:49;;;;;;;4.32;3.47;;;;;;;;;;5037749;28;20178;-83
2022/06/05 00:06:20;;;;;;;3.60;3.30;;;;;;;;;;5035684;28;20265;-83
2022/06/05 00:08:59;;;;;;;3.42;3.10;;;;;;;;;;5043648;28;20225;-82
2022/06/05 00:11:26;;;;;;;3.90;3.50;;;;;;;;;;5040402;28;20185;-84
2022/06/05 00:13:55;;;;;;;3.80;3.50;;;;;;;;;;5032650;28;20196;-82
2022/06/05 00:16:23;;;;;;;3.83;3.50;;;;;;;;;;5029284;28;20473;-85
2022/06/05 00:18:49;;;;;;;4.47;3.50;;;;;;;;;;5036890;28;20465;-84
2022/06/05 00:21:15;;;;;;;3.90;3.50;;;;;;;;;;5029870;28;20732;-84
2022/06/05 00:23:41;;;;;;;4.50;3.80;;;;;;;;;;5044631;28;20257;-82
2022/06/05 00:26:12;;;;;;;4.28;3.88;;;;;;;;;;5031947;28;20284;-83
2022/06/05 00:28:39;;;;;;;4.47;3.80;;;;;;;;;;5029195;28;20710;-85
2022/06/05 00:31:16;;;;;;;4.03;3.63;;;;;;;;;;5031901;28;20194;-83
2022/06/05 00:33:42;;;;;;;4.43;4.03;;;;;;;;;;5012924;28;20181;-84
2022/06/05 00:36:13;;;;;;;4.50;4.10;;;;;;;;;;5029545;28;20203;-82
2022/06/05 00:38:52;;;;;;;4.85;4.28;;;;;;;;;;5020577;28;20183;-83
2022/06/05 00:41:37;;;;;;;4.28;3.88;;;;;;;;;;5030881;28;20269;-82
2022/06/05 00:44:05;;;;;;;4.38;3.97;;;;;;;;;;5021112;28;20183;-83
2022/06/05 00:46:32;;;;;;;4.32;3.88;;;;;;;;;;5035851;28;20203;-82
2022/06/05 00:48:58;;;;;;;5.15;3.92;;;;;;;;;;5027632;28;20230;-81
2022/06/05 00:51:24;;;;;;;5.03;4.63;;;;;;;;;;5028774;28;20187;-83
2022/06/05 00:53:51;;;;;;;4.75;4.35;;;;;;;;;;5034061;28;20217;-85
2022/06/05 00:56:17;;;;;;;4.35;3.97;;;;;;;;;;5037993;28;20213;-85
2022/06/05 00:58:43;;;;;;;4.35;3.95;;;;;;;;;;5015231;28;20186;-83
2022/06/05 01:01:09;;;;;;;4.55;3.97;;;;;;;;;;5030493;28;20225;-84
2022/06/05 01:03:36;;;;;;;4.47;3.83;;;;;;;;;;5027626;28;20211;-84
2022/06/05 01:06:02;;;;;;;4.28;3.88;;;;;;;;;;5035622;28;20207;-83
2022/06/05 01:11:50;;;;;;;4.30;3.90;;;;;;;;;;5037717;28;20498;-84
2022/06/05 01:14:16;;;;;;;4.30;3.90;;;;;;;;;;5038508;28;20753;-84
2022/06/05 01:16:58;;;;;;;4.43;4.03;;;;;;;;;;5041132;28;20215;-83
2022/06/05 01:19:23;;;;;;;4.15;3.85;;;;;;;;;;5044048;28;20281;-83
2022/06/05 01:22:02;;;;;;;4.60;3.55;;;;;;;;;;5026385;28;20273;-84
2022/06/05 01:24:40;;;;;;;4.63;3.92;;;;;;;;;;5030519;28;20186;-83
2022/06/05 01:27:09;;;;;;;5.65;4.30;;;;;;;;;;5033544;28;20242;-83
2022/06/05 01:29:38;;;;;;;4.53;4.13;;;;;;;;;;5032388;28;20202;-82
2022/06/05 01:32:08;;;;;;;4.50;4.10;;;;;;;;;;5033963;28;20186;-84
2022/06/05 01:34:36;;;;;;;4.70;4.30;;;;;;;;;;5032433;28;20186;-85
2022/06/05 01:37:02;;;;;;;4.55;4.15;;;;;;;;;;5027591;28;20222;-84
2022/06/05 01:39:28;;;;;;;4.90;4.50;;;;;;;;;;5018828;28;20186;-83
2022/06/05 01:41:56;;;;;;;5.07;4.23;;;;;;;;;;5017320;28;20195;-83
2022/06/05 01:44:43;;;;;;;4.27;3.87;;;;;;;;;;5040234;28;20208;-84
2022/06/05 01:47:14;;;;;;;4.20;3.90;;;;;;;;;;5017521;28;20578;-83
2022/06/05 01:49:48;;;;;;;4.43;4.03;;;;;;;;;;5030141;28;20202;-81
2022/06/05 01:52:36;;;;;;;4.80;4.30;;;;;;;;;;5029904;28;20275;-82
2022/06/05 01:55:15;;;;;;;4.38;3.83;;;;;;;;;;5029785;28;20611;-83
2022/06/05 01:57:41;;;;;;;5.60;4.32;;;;;;;;;;5019252;28;20276;-83
2022/06/05 02:00:11;;;;;;;4.43;4.03;;;;;;;;;;5038136;28;20309;-82
2022/06/05 02:02:42;;;;;;;5.28;4.53;;;;;;;;;;5029790;28;20458;-82
2022/06/05 02:05:15;;;;;;;4.70;4.10;;;;;;;;;;5029039;28;20190;-84
2022/06/05 02:07:52;;;;;;;5.27;4.77;;;;;;;;;;5032682;28;20208;-84
2022/06/05 02:10:41;;;;;;;4.80;4.30;;;;;;;;;;5029739;28;20248;-83
2022/06/05 02:13:07;;;;;;;5.73;4.80;;;;;;;;;;5005216;28;20220;-81
2022/06/05 02:15:33;;;;;;;4.43;4.03;;;;;;;;;;5011509;28;20260;-83
2022/06/05 02:18:00;;;;;;;4.87;4.47;;;;;;;;;;5029983;28;20186;-83
2022/06/05 02:20:27;;;;;;;4.70;4.30;;;;;;;;;;5028528;28;20650;-83
2022/06/05 02:22:53;;;;;;;5.27;4.57;;;;;;;;;;5028692;28;20714;-82
2022/06/05 02:25:21;;;;;;;5.10;4.60;;;;;;;;;;5037113;28;20198;-83
2022/06/05 02:27:47;;;;;;;5.87;4.87;;;;;;;;;;5029851;28;20568;-85
2022/06/05 02:30:15;;;;;;;4.87;4.47;;;;;;;;;;5029630;28;20337;-81
2022/06/05 02:32:44;;;;;;;5.40;4.90;;;;;;;;;;5016815;28;20182;-84
2022/06/05 02:35:29;;;;;;;5.20;4.80;;;;;;;;;;5033963;28;20650;-83
2022/06/05 02:38:04;;;;;;;5.37;4.67;;;;;;;;;;5037841;28;20197;-81
2022/06/05 02:40:35;;;;;;;5.93;4.70;;;;;;;;;;5025447;28;20193;-83
2022/06/05 02:43:04;;;;;;;5.50;5.00;;;;;;;;;;5033469;28;20198;-83
2022/06/05 02:45:41;;;;;;;5.20;4.43;;;;;;;;;;5038620;28;20197;-83
2022/06/05 02:48:17;;;;;;;5.20;4.67;;;;;;;;;;5032325;28;20240;-83
2022/06/05 02:50:53;;;;;;;5.47;4.93;;;;;;;;;;5009845;28;20651;-82
2022/06/05 02:53:19;;;;;;;5.40;4.90;;;;;;;;;;5027174;28;20224;-83
2022/06/05 02:55:45;;;;;;;5.10;4.63;;;;;;;;;;5017792;28;20267;-83
2022/06/05 02:58:12;;;;;;;6.67;5.10;;;;;;;;;;5038943;28;20551;-83
2022/06/05 03:00:39;;;;;;;6.80;5.07;;;;;;;;;;5033590;28;20183;-84
2022/06/05 03:05:50;;;;;;;5.93;5.37;;;;;;;;;;5035756;28;20585;-82
2022/06/05 03:08:17;;;;;;;5.80;5.20;;;;;;;;;;5014578;28;20620;-82
2022/06/05 03:10:44;;;;;;;6.10;5.40;;;;;;;;;;5028847;28;20295;-81
2022/06/05 03:13:11;;;;;;;5.90;5.40;;;;;;;;;;5032306;28;20209;-82
2022/06/05 03:15:37;;;;;;;5.63;5.13;;;;;;;;;;5012944;28;20183;-85
2022/06/05 03:18:03;;;;;;;5.93;4.67;;;;;;;;;;5020454;28;20965;-82
2022/06/05 03:20:29;;;;;;;5.57;5.07;;;;;;;;;;5028734;28;20191;-83
2022/06/05 03:22:55;;;;;;;5.23;4.73;;;;;;;;;;5033219;28;20195;-81
2022/06/05 03:25:22;;;;;;;5.47;4.87;;;;;;;;;;5024586;28;20189;-83
2022/06/05 03:27:48;;;;;;;4.90;4.50;;;;;;;;;;5026390;28;20240;-83
2022/06/05 03:30:15;;;;;;;5.20;4.70;;;;;;;;;;5024200;28;20786;-82
2022/06/05 03:32:41;;;;;;;5.03;4.40;;;;;;;;;;5021177;28;20182;-83
2022/06/05 03:35:08;;;;;;;5.67;4.93;;;;;;;;;;5023797;28;20319;-83
2022/06/05 03:37:34;;;;;;;5.17;4.73;;;;;;;;;;5024429;28;20487;-84
2022/06/05 03:40:00;;;;;;;4.90;4.40;;;;;;;;;;5018754;28;20573;-84
2022/06/05 03:42:26;;;;;;;4.73;4.33;;;;;;;;;;5023871;28;20187;-83
2022/06/05 03:44:52;;;;;;;4.90;4.40;;;;;;;;;;5011120;28;20195;-84
2022/06/05 03:47:18;;;;;;;5.30;4.47;;;;;;;;;;5026844;28;20220;-83
2022/06/05 03:49:44;;;;;;;4.80;4.40;;;;;;;;;;5013446;28;20207;-85
2022/06/05 03:52:11;;;;;;;5.20;4.70;;;;;;;;;;5026297;28;20186;-86
2022/06/05 03:54:37;;;;;;;5.50;4.20;;;;;;;;;;5024230;28;20608;-84
2022/06/05 03:57:04;;;;;;;4.53;4.10;;;;;;;;;;5032771;28;20220;-86
2022/06/05 03:59:30;;;;;;;5.70;4.60;;;;;;;;;;5026158;28;20636;-86
2022/06/05 04:01:56;;;;;;;4.63;4.20;;;;;;;;;;5018654;28;20273;-86
2022/06/05 04:04:23;;;;;;;5.72;4.22;;;;;;;;;;5026889;28;20714;-86
2022/06/05 04:06:49;;;;;;;5.07;4.37;;;;;;;;;;5040303;28;20293;-83
2022/06/05 04:09:15;;;;;;;4.05;3.75;;;;;;;;;;5028303;28;20221;-83
2022/06/05 04:11:41;;;;;;;4.93;4.00;;;;;;;;;;5041715;28;20664;-83
2022/06/05 04:14:08;;;;;;;5.28;4.20;;;;;;;;;;5026328;28;20188;-83
2022/06/05 04:16:34;;;;;;;4.38;3.97;;;;;;;;;;5024287;28;20202;-80
2022/06/05 04:19:01;;;;;;;5.97;4.03;;;;;;;;;;5027845;28;20186;-83
2022/06/05 04:21:28;;;;;;;3.85;3.55;;;;;;;;;;5028089;28;20612;-83
2022/06/05 04:23:55;;;;;;;4.47;4.07;;;;;;;;;;5027268;28;20205;-82
2022/06/05 04:26:22;;;;;;;4.47;4.07;;;;;;;;;;5025746;28;20462;-82
2022/06/05 04:28:48;;;;;;;4.90;4.35;;;;;;;;;;5017253;28;20206;-83
2022/06/05 04:31:25;;;;;;;4.80;4.40;;;;;;;;;;5026870;28;20520;-83
2022/06/05 04:33:52;;;;;;;4.88;4.20;;;;;;;;;;5032386;28;20426;-82
2022/06/05 04:36:18;;;;;;;5.32;4.10;;;;;;;;;;5029880;28;20203;-83
2022/06/05 04:38:44;;;;;;;4.75;4.28;;;;;;;;;;5030260;28;20181;-83
2022/06/05 04:41:11;;;;;;;4.07;3.78;;;;;;;;;;5031195;28;20179;-81
2022/06/05 04:43:37;;;;;;;4.80;4.03;;;;;;;;;;5027760;28;20191;-82
2022/06/05 04:46:04;;;;;;;4.70;4.30;;;;;;;;;;5016872;28;20211;-82
2022/06/05 04:48:30;;;;;;;4.75;3.78;;;;;;;;;;5029028;28;20551;-82
2022/06/05 04:50:56;;;;;;;5.43;4.15;;;;;;;;;;5020171;28;20210;-84
2022/06/05 04:53:22;;;;;;;5.13;3.95;;;;;;;;;;5036856;28;20736;-81
2022/06/05 04:55:48;;;;;;;4.53;3.60;;;;;;;;;;5020133;28;20585;-83
2022/06/05 04:58:14;;;;;;;4.95;3.88;;;;;;;;;;5018354;28;20187;-82
2022/06/05 05:00:40;;;;;;;4.75;3.42;;;;;;;;;;5039181;28;20193;-85
2022/06/05 05:03:06;;;;;;;3.78;3.25;;;;;;;;;;5036191;28;20190;-83
2022/06/05 05:05:34;;;;;;;3.55;3.15;;;;;;;;;;5030017;28;20182;-83
2022/06/05 05:07:59;;;;;;;3.80;2.75;;;;;;;;;;5028851;28;20187;-84
2022/06/05 05:10:25;;;;;;;3.35;2.97;;;;;;;;;;5028821;28;20758;-84
2022/06/05 05:12:52;;;;;;;3.20;3.00;;;;;;;;;;5031192;28;20197;-83
2022/06/05 05:15:18;;;;;;;3.35;3.15;;;;;;;;;;5030638;28;20236;-82
2022/06/05 05:17:44;;;;;;;3.75;3.42;;;;;;;;;;5036323;28;20677;-81
2022/06/05 05:20:11;;;;;;;3.53;3.22;;;;;;;;;;5029688;28;20183;-82
2022/06/05 05:22:40;;;;;;;4.22;3.20;;;;;;;;;;5028234;28;20179;-83
2022/06/05 05:25:07;;;;;;;4.35;3.40;;;;;;;;;;5028694;28;20187;-83
2022/06/05 05:27:33;;;;;;;4.40;3.42;;;;;;;;;;5019857;28;20214;-81
2022/06/05 05:29:59;;;;;;;3.67;3.20;;;;;;;;;;5041354;28;20297;-84
2022/06/05 05:32:25;;;;;;;4.97;3.13;;;;;;;;;;5021835;28;20298;-82
2022/06/05 05:34:51;;;;;;;3.63;3.30;;;;;;;;;;5034128;28;20186;-83
2022/06/05 05:37:17;;;;;;;3.75;3.30;;;;;;;;;;5028117;28;20702;-84
2022/06/05 05:42:30;;;;;;;3.45;3.05;;;;;;;;;;5030822;28;20214;-84
2022/06/05 05:44:57;;;;;;;3.83;3.50;;;;;;;;;;5028839;28;20240;-83
2022/06/05 05:47:24;;;;;;;4.07;3.60;;;;;;;;;;5030032;28;20199;-84
2022/06/05 05:49:51;;;;;;;3.78;3.45;;;;;;;;;;5026755;28;20782;-82
2022/06/05 05:52:17;;;;;;;4.40;3.88;;;;;;;;;;5029467;28;20181;-82
2022/06/05 05:54:43;;;;;;;4.07;3.50;;;;;;;;;;5017374;28;20633;-83
2022/06/05 05:57:09;;;;;;;3.58;3.28;;;;;;;;;;5025182;28;20211;-83
2022/06/05 05:59:35;;;;;;;4.88;3.90;;;;;;;;;;5035255;28;20197;-82
2022/06/05 06:02:02;;;;;;;4.57;4.05;;;;;;;;;;5015202;28;20274;-82
2022/06/05 06:04:28;;;;;;;4.38;3.97;;;;;;;;;;5029852;28;20195;-83
2022/06/05 06:06:54;;;;;;;4.20;3.65;;;;;;;;;;5030146;28;20286;-83
2022/06/05 06:09:20;;;;;;;4.00;3.70;;;;;;;;;;5028263;28;20253;-82
2022/06/05 06:11:47;;;;;;;4.00;3.70;;;;;;;;;;5027064;28;20232;-83
2022/06/05 06:14:12;;;;;;;3.95;3.55;;;;;;;;;;5027731;28;20186;-83
2022/06/05 06:16:39;;;;;;;3.97;3.67;;;;;;;;;;5027051;28;20194;-80
2022/06/05 06:19:05;;;;;;;3.83;3.47;;;;;;;;;;5024932;28;20182;-83
2022/06/05 06:21:31;;;;;;;4.20;3.80;;;;;;;;;;5024702;28;20191;-82
2022/06/05 06:23:57;;;;;;;3.85;3.45;;;;;;;;;;5026760;28;20194;-82
2022/06/05 06:26:23;;;;;;;4.53;3.70;;;;;;;;;;5023643;28;20217;-82
2022/06/05 06:28:49;;;;;;;3.90;3.50;;;;;;;;;;5014450;28;20183;-83
2022/06/05 06:31:16;;;;;;;4.43;3.60;;;;;;;;;;5024480;28;20653;-82
2022/06/05 06:33:43;;;;;;;3.67;3.28;;;;;;;;;;5025987;28;20269;-84
2022/06/05 06:36:11;;;;;;;4.43;3.45;;;;;;;;;;5026429;28;20974;-81
2022/06/05 06:38:37;;;;;;;4.05;3.65;;;;;;;;;;5023116;28;20183;-83
2022/06/05 06:41:05;;;;;;;4.05;3.42;;;;;;;;;;5013825;28;20195;-83
2022/06/05 06:43:31;;;;;;;3.70;3.40;;;;;;;;;;5022627;28;20187;-81
2022/06/05 06:45:58;;;;;;;4.00;3.60;;;;;;;;;;5011677;28;20214;-83
2022/06/05 06:48:24;;;;;;;3.72;3.42;;;;;;;;;;5009747;28;20198;-83
2022/06/05 06:50:52;;;;;;;3.72;3.42;;;;;;;;;;5013237;28;20207;-83
2022/06/05 06:53:18;;;;;;;3.90;3.60;;;;;;;;;;5023498;28;20193;-82
2022/06/05 06:55:44;;;;;;;4.00;3.60;;;;;;;;;;5022596;28;20600;-83
2022/06/05 06:58:10;;;;;;;3.80;3.50;;;;;;;;;;5022638;28;20257;-84
2022/06/05 07:00:36;;;;;;;4.15;3.80;;;;;;;;;;5023131;28;20586;-84
2022/06/05 07:03:02;;;;;;;4.50;4.10;;;;;;;;;;5025696;28;20185;-83
2022/06/05 07:05:28;;;;;;;3.85;3.55;;;;;;;;;;5024766;28;20190;-83
2022/06/05 07:07:54;;;;;;;4.43;4.00;;;;;;;;;;5019100;28;20300;-84
2022/06/05 07:10:20;;;;;;;3.38;3.08;;;;;;;;;;5015418;28;20210;-84
2022/06/05 07:12:47;;;;;;;3.90;3.55;;;;;;;;;;5018285;28;20321;-83
2022/06/05 07:15:13;;;;;;;3.78;3.47;;;;;;;;;;5028306;28;20201;-82
2022/06/05 07:17:39;;;;;;;3.85;3.55;;;;;;;;;;5031031;28;20202;-84
2022/06/05 07:20:06;;;;;;;4.47;4.07;;;;;;;;;;5013274;28;20595;-83
2022/06/05 07:22:32;;;;;;;3.97;3.67;;;;;;;;;;5030914;28;20335;-83
2022/06/05 07:24:59;;;;;;;4.00;3.60;;;;;;;;;;5025495;28;20664;-82
2022/06/05 07:27:25;;;;;;;3.97;3.58;;;;;;;;;;5031797;28;20608;-83
2022/06/05 07:29:51;;;;;;;5.35;3.97;;;;;;;;;;5025453;28;20210;-83
2022/06/05 07:32:17;;;;;;;5.75;4.05;;;;;;;;;;5025047;28;20558;-83
2022/06/05 07:34:43;;;;;;;3.70;3.40;;;;;;;;;;5023913;28;20209;-83
2022/06/05 07:37:09;;;;;;;4.30;3.90;;;;;;;;;;5014907;28;20797;-83
2022/06/05 07:39:35;;;;;;;3.90;3.55;;;;;;;;;;5022414;28;20235;-83
2022/06/05 07:42:01;;;;;;;4.82;3.92;;;;;;;;;;5025809;28;20554;-83
2022/06/05 07:44:27;;;;;;;4.72;3.67;;;;;;;;;;5030309;28;20182;-81
2022/06/05 07:46:54;;;;;;;3.95;3.50;;;;;;;;;;5024323;28;20201;-84
2022/06/05 07:49:20;;;;;;;3.80;3.50;;;;;;;;;;5033573;28;20210;-83
2022/06/05 07:54:31;;;;;;;3.97;3.63;;;;;;;;;;5032412;28;20194;-82
2022/06/05 07:57:07;;;;;;;4.50;4.10;;;;;;;;;;5033838;28;20199;-81
2022/06/05 07:59:38;;;;;;;5.10;4.00;;;;;;;;;;5023266;28;20194;-84
2022/06/05 08:02:06;;;;;;;4.15;3.75;;;;;;;;;;5029632;28;20278;-84
2022/06/05 08:04:33;;;;;;;4.07;3.78;;;;;;;;;;5023122;28;20182;-84
2022/06/05 08:07:00;;;;;;;4.40;3.95;;;;;;;;;;5014671;28;20573;-83
2022/06/05 08:09:27;;;;;;;4.15;3.85;;;;;;;;;;5010479;28;20826;-82
2022/06/05 08:11:53;;;;;;;3.47;3.17;;;;;;;;;;5035325;28;20182;-84
2022/06/05 08:14:19;;;;;;;3.92;3.55;;;;;;;;;;5013387;28;20241;-84
2022/06/05 08:16:46;;;;;;;4.13;3.70;;;;;;;;;;5019834;28;20543;-84
2022/06/05 08:19:16;;;;;;;4.50;4.10;;;;;;;;;;5042509;28;20187;-82
2022/06/05 08:21:42;;;;;;;3.95;3.65;;;;;;;;;;5041934;28;20201;-82
2022/06/05 08:24:08;;;;;;;4.53;3.28;;;;;;;;;;5027127;28;20191;-84
2022/06/05 08:26:34;;;;;;;3.80;3.50;;;;;;;;;;5032984;28;20199;-83
2022/06/05 08:29:01;;;;;;;3.78;3.42;;;;;;;;;;5020786;28;20192;-82
2022/06/05 08:31:29;;;;;;;4.35;3.55;;;;;;;;;;5028459;28;20652;-84
2022/06/05 08:33:55;;;;;;;3.60;3.33;;;;;;;;;;5029025;28;20248;-83
2022/06/05 08:36:21;;;;;;;4.15;3.85;;;;;;;;;;5035982;28;20260;-83
2022/06/05 08:41:32;;;;;;;3.88;3.53;;;;;;;;;;5032160;28;20272;-84
2022/06/05 08:44:04;;;;;;;4.28;3.63;;;;;;;;;;5026893;28;20983;-82
2022/06/05 08:46:33;;;;;;;4.28;3.33;;;;;;;;;;5027278;28;20202;-83
2022/06/05 08:49:02;;;;;;;4.80;3.72;;;;;;;;;;5027400;28;20186;-82
2022/06/05 08:51:28;;;;;;;3.80;3.47;;;;;;;;;;5016527;28;20261;-81
2022/06/05 08:53:56;;;;;;;3.55;2.92;;;;;;;;;;5018078;28;20191;-83
2022/06/05 08:56:26;;;;;;;4.60;3.58;;;;;;;;;;5025785;28;20207;-84
2022/06/05 08:58:54;;;;;;;3.83;3.40;;;;;;;;;;5029222;28;20174;-84
2022/06/05 09:01:32;;;;;;;3.70;3.40;;;;;;;;;;5025790;28;20265;-83
2022/06/05 09:03:58;;;;;;;4.13;3.70;;;;;;;;;;5028934;28;20186;-83
2022/06/05 09:06:24;;;;;;;3.58;3.28;;;;;;;;;;5027037;28;20206;-83
2022/06/05 09:08:54;;;;;;;3.20;3.00;;;;;;;;;;5028814;28;20230;-84
2022/06/05 09:11:35;;;;;;;3.70;3.38;;;;;;;;;;5037881;28;20186;-83
2022/06/05 09:14:00;;;;;;;4.82;3.53;;;;;;;;;;5026792;28;20757;-83
2022/06/05 09:16:29;;;;;;;4.72;3.30;;;;;;;;;;5015219;28;20234;-83
2022/06/05 09:18:55;;;;;;;4.07;3.75;;;;;;;;;;5028470;28;20187;-83
2022/06/05 09:21:26;;;;;;;3.40;3.10;;;;;;;;;;5025068;28;20278;-81
2022/06/05 09:24:04;;;;;;;7.05;3.70;;;;;;;;;;5029622;28;20189;-84
2022/06/05 09:26:36;;;;;;;3.60;3.40;;;;;;;;;;5034016;28;20225;-81
2022/06/05 09:29:07;;;;;;;3.22;2.92;;;;;;;;;;5024850;28;20183;-81
2022/06/05 09:31:36;;;;;;;4.03;3.50;;;;;;;;;;5038902;28;20213;-83
2022/06/05 09:34:05;;;;;;;3.58;3.33;;;;;;;;;;5036894;28;20636;-84
2022/06/05 09:36:33;;;;;;;4.07;3.75;;;;;;;;;;5039429;28;20232;-84
2022/06/05 09:39:17;;;;;;;3.70;3.40;;;;;;;;;;5028231;28;20322;-83
2022/06/05 09:42:03;;;;;;;4.05;3.60;;;;;;;;;;5027995;28;20659;-84
2022/06/05 09:44:38;;;;;;;4.03;3.72;;;;;;;;;;5024510;28;20349;-83
2022/06/05 09:47:10;;;;;;;3.63;3.40;;;;;;;;;;5025251;28;20206;-83
2022/06/05 09:49:39;;;;;;;3.65;3.35;;;;;;;;;;5023959;28;20771;-81
2022/06/05 09:52:13;;;;;;;3.80;3.50;;;;;;;;;;5034240;28;20182;-83
2022/06/05 09:54:43;;;;;;;3.90;3.50;;;;;;;;;;5024021;28;20843;-83
2022/06/05 10:00:26;;;;;;;3.47;3.03;;;;;;;;;;5031368;28;20202;-83
2022/06/05 10:02:56;;;;;;;4.78;3.53;;;;;;;;;;5038611;28;20194;-83
2022/06/05 10:05:26;;;;;;;3.58;3.28;;;;;;;;;;5024418;28;20185;-82
2022/06/05 10:07:57;;;;;;;3.33;3.03;;;;;;;;;;5023558;28;20186;-81
2022/06/05 10:10:26;;;;;;;3.78;3.47;;;;;;;;;;5036835;28;20215;-83
2022/06/05 10:12:58;;;;;;;4.40;4.00;;;;;;;;;;5027761;28;20176;-82
2022/06/05 10:15:39;;;;;;;4.18;3.80;;;;;;;;;;5023868;28;20675;-82
2022/06/05 10:18:10;;;;;;;3.63;3.30;;;;;;;;;;5036318;28;20794;-82
2022/06/05 10:20:54;;;;;;;4.00;3.58;;;;;;;;;;5025707;28;20178;-83
2022/06/05 10:23:29;;;;;;;4.15;3.63;;;;;;;;;;5036219;28;20205;-83
2022/06/05 10:26:01;;;;;;;4.00;3.70;;;;;;;;;;5026170;28;20212;-80
2022/06/05 10:28:29;;;;;;;3.80;3.50;;;;;;;;;;5024395;28;20190;-82
2022/06/05 10:31:22;;;;;;;4.00;3.63;;;;;;;;;;5025906;28;20210;-82
2022/06/05 10:33:53;;;;;;;4.10;3.80;;;;;;;;;;5032178;28;20661;-83
2022/06/05 10:36:18;;;;;;;4.32;3.60;;;;;;;;;;5025966;28;20205;-81
2022/06/05 10:38:52;;;;;;;4.32;3.78;;;;;;;;;;5020374;28;20331;-82
2022/06/05 10:41:27;;;;;;;4.00;3.67;;;;;;;;;;5023622;28;20186;-82
2022/06/05 10:44:12;;;;;;;4.20;3.80;;;;;;;;;;5023393;28;20186;-82
2022/06/05 10:46:40;;;;;;;3.72;3.42;;;;;;;;;;5026142;28;20285;-83
2022/06/05 10:49:32;;;;;;;3.80;3.53;;;;;;;;;;5022891;28;20264;-82
2022/06/05 10:51:58;;;;;;;4.30;3.90;;;;;;;;;;5001091;28;20492;-83
2022/06/05 10:54:39;;;;;;;3.97;3.67;;;;;;;;;;5024479;28;20189;-83
2022/06/05 10:57:05;;;;;;;4.22;3.47;;;;;;;;;;5022241;28;20875;-80
2022/06/05 10:59:47;;;;;;;4.90;3.55;;;;;;;;;;5010935;28;20183;-81
2022/06/05 11:02:19;;;;;;;3.58;3.28;;;;;;;;;;5032081;28;20189;-83
2022/06/05 11:04:45;;;;;;;3.80;3.50;;;;;;;;;;5032472;28;20610;-83
2022/06/05 11:07:22;;;;;;;3.30;3.10;;;;;;;;;;5009069;28;20238;-83
2022/06/05 11:09:50;;;;;;;5.30;3.88;;;;;;;;;;5028269;28;20888;-82
2022/06/05 11:15:17;;;;;;;3.33;3.13;;;;;;;;;;5026313;28;20217;-83
2022/06/05 11:18:02;;;;;;;3.40;3.20;;;;;;;;;;5024236;28;20213;-83
2022/06/05 11:20:29;;;;;;;3.80;3.22;;;;;;;;;;5024964;28;20273;-82
2022/06/05 11:22:55;;;;;;;4.55;3.40;;;;;;;;;;5029061;28;20887;-83
2022/06/05 11:25:26;;;;;;;3.65;3.35;;;;;;;;;;5033937;28;20192;-83
2022/06/05 11:27:59;;;;;;;3.65;3.45;;;;;;;;;;5032976;28;20695;-81
2022/06/05 11:30:32;;;;;;;3.90;3.60;;;;;;;;;;5023697;28;20588;-83
2022/06/05 11:33:05;;;;;;;3.28;3.08;;;;;;;;;;5024856;28;20204;-83
2022/06/05 11:35:40;;;;;;;3.55;3.35;;;;;;;;;;5024030;28;20186;-83
2022/06/05 11:38:28;;;;;;;3.92;3.63;;;;;;;;;;5032358;28;20186;-83
2022/06/05 11:40:57;;;;;;;4.22;3.65;;;;;;;;;;5024734;28;20420;-83
2022/06/05 11:43:26;;;;;;;3.78;3.50;;;;;;;;;;5009389;28;20332;-81
2022/06/05 11:45:54;;;;;;;3.88;3.58;;;;;;;;;;5022323;28;20218;-83
2022/06/05 11:48:27;;;;;;;3.95;3.65;;;;;;;;;;5021958;28;20293;-81
2022/06/05 11:50:59;;;;;;;3.58;3.30;;;;;;;;;;5024605;28;20682;-83
2022/06/05 11:53:28;;;;;;;5.32;3.42;;;;;;;;;;5023604;28;20285;-81
2022/06/05 11:55:57;;;;;;;5.85;3.42;;;;;;;;;;5025352;28;20426;-82
2022/06/05 11:58:36;;;;;;;4.30;3.97;;;;;;;;;;5021778;28;20186;-82
2022/06/05 12:01:07;;;;;;;3.72;3.28;;;;;;;;;;5024636;28;20197;-84
2022/06/05 12:03:33;;;;;;;3.45;3.15;;;;;;;;;;5022267;28;20296;-82
2022/06/05 12:05:59;;;;;;;3.90;3.60;;;;;;;;;;5025518;28;20778;-83
2022/06/05 12:08:30;;;;;;;3.55;3.25;;;;;;;;;;5024034;28;20197;-83
2022/06/05 12:10:56;;;;;;;3.30;3.00;;;;;;;;;;5029713;28;20548;-82
2022/06/05 12:13:25;;;;;;;3.63;3.33;;;;;;;;;;5023425;28;20233;-82
2022/06/05 12:15:58;;;;;;;3.30;3.08;;;;;;;;;;5024863;28;20688;-84
2022/06/05 12:18:29;;;;;;;3.53;2.97;;;;;;;;;;5028141;28;20189;-82
2022/06/05 12:21:00;;;;;;;5.07;3.15;;;;;;;;;;5021817;28;20542;-83
2022/06/05 12:23:29;;;;;;;3.53;3.22;;;;;;;;;;5021977;28;20195;-82
2022/06/05 12:26:00;;;;;;;3.22;3.03;;;;;;;;;;5024275;28;20202;-83
2022/06/05 12:28:29;;;;;;;5.03;3.10;;;;;;;;;;5027775;28;20305;-82
2022/06/05 12:30:55;;;;;;;3.42;3.00;;;;;;;;;;5024974;28;20218;-82
2022/06/05 12:33:24;;;;;;;3.30;3.00;;;;;;;;;;5023708;28;20718;-82
2022/06/05 12:35:53;;;;;;;3.03;2.83;;;;;;;;;;5034560;28;20248;-82
2022/06/05 12:38:25;;;;;;;4.53;3.05;;;;;;;;;;5033259;28;20551;-83
2022/06/05 12:41:11;;;;;;;3.50;3.20;;;;;;;;;;5025318;28;20825;-84
2022/06/05 12:43:56;;;;;;;3.53;3.22;;;;;;;;;;5022492;28;20700;-83
2022/06/05 12:46:22;;;;;;;3.30;3.10;;;;;;;;;;5021492;28;20209;-83
2022/06/05 12:48:47;;;;;;;3.70;3.40;;;;;;;;;;5016037;28;20182;-83
2022/06/05 12:51:16;;;;;;;3.58;3.30;;;;;;;;;;5032570;28;20309;-82
2022/06/05 12:54:14;;;;;;;3.60;3.30;;;;;;;;;;5022195;28;20649;-82
2022/06/05 12:56:51;;;;;;;3.30;3.10;;;;;;;;;;4993971;28;20218;-84
2022/06/05 12:59:17;;;;;;;3.80;3.50;;;;;;;;;;5025537;28;20273;-81
2022/06/05 13:01:50;;;;;;;3.40;3.20;;;;;;;;;;5026406;28;20278;-84
2022/06/05 13:04:20;;;;;;;3.70;3.50;;;;;;;;;;5036109;28;20187;-84
2022/06/05 13:06:48;;;;;;;3.53;3.22;;;;;;;;;;5036104;28;20286;-82
2022/06/05 13:09:19;;;;;;;4.40;3.33;;;;;;;;;;5024907;28;20298;-83
2022/06/05 13:11:47;;;;;;;3.67;3.40;;;;;;;;;;5015643;28;20270;-83
2022/06/05 13:14:27;;;;;;;3.50;3.30;;;;;;;;;;5013004;28;20610;-83
2022/06/05 13:16:56;;;;;;;3.22;3.03;;;;;;;;;;5032297;28;20288;-83
2022/06/05 13:19:34;;;;;;;3.90;3.60;;;;;;;;;;5024749;28;20473;-82
2022/06/05 13:22:13;;;;;;;3.42;3.13;;;;;;;;;;5036909;28;20277;-81
2022/06/05 13:25:03;;;;;;;3.40;3.20;;;;;;;;;;5025192;28;20209;-83
2022/06/05 13:27:51;;;;;;;3.90;3.53;;;;;;;;;;5024546;28;20252;-83
2022/06/05 13:30:19;;;;;;;3.55;3.35;;;;;;;;;;5024126;28;20221;-84
2022/06/05 13:32:48;;;;;;;3.40;3.20;;;;;;;;;;5031092;28;20178;-82
2022/06/05 13:35:33;;;;;;;3.75;3.45;;;;;;;;;;5024381;28;20187;-83
2022/06/05 13:38:20;;;;;;;3.55;3.35;;;;;;;;;;5026065;28;20179;-85
2022/06/05 13:40:47;;;;;;;3.97;3.67;;;;;;;;;;5020716;28;20536;-84
2022/06/05 13:43:18;;;;;;;4.18;3.60;;;;;;;;;;5027516;28;20455;-83
2022/06/05 13:45:56;;;;;;;3.75;3.55;;;;;;;;;;5023983;28;20461;-84
2022/06/05 13:48:26;;;;;;;3.80;3.50;;;;;;;;;;5033348;28;20197;-83
2022/06/05 13:51:14;;;;;;;3.53;3.33;;;;;;;;;;5031713;28;20202;-83
2022/06/05 13:53:42;;;;;;;3.45;3.15;;;;;;;;;;5026551;28;20661;-83
2022/06/05 13:56:20;;;;;;;3.75;3.55;;;;;;;;;;5018389;28;20194;-85
2022/06/05 13:58:51;;;;;;;4.00;3.63;;;;;;;;;;5015747;28;21052;-85
2022/06/05 14:01:29;;;;;;;3.63;3.33;;;;;;;;;;5025952;28;20190;-83
2022/06/05 14:03:57;;;;;;;4.20;3.80;;;;;;;;;;5024370;28;20186;-83
2022/06/05 14:06:32;;;;;;;3.55;3.35;;;;;;;;;;5025203;28;20620;-83
2022/06/05 14:09:04;;;;;;;3.70;3.40;;;;;;;;;;5022762;28;20280;-83
2022/06/05 14:11:32;;;;;;;3.67;3.47;;;;;;;;;;5026379;28;20594;-82
2022/06/05 14:14:00;;;;;;;3.88;3.58;;;;;;;;;;5026820;28;20272;-83
2022/06/05 14:16:28;;;;;;;4.07;3.78;;;;;;;;;;5026310;28;20210;-84
2022/06/05 14:19:00;;;;;;;3.42;3.22;;;;;;;;;;5027056;28;20197;-84
2022/06/05 14:21:33;;;;;;;3.72;3.38;;;;;;;;;;5027103;28;20285;-84
2022/06/05 14:24:03;;;;;;;4.50;4.10;;;;;;;;;;5026525;28;20656;-81
2022/06/05 14:26:38;;;;;;;4.10;3.80;;;;;;;;;;5023904;28;20213;-84
2022/06/05 14:29:06;;;;;;;3.80;3.50;;;;;;;;;;5025847;28;20217;-83
2022/06/05 14:31:32;;;;;;;4.03;3.72;;;;;;;;;;5026774;28;20182;-83
2022/06/05 14:34:01;;;;;;;4.20;3.90;;;;;;;;;;5026437;28;20178;-82
2022/06/05 14:36:39;;;;;;;3.70;3.50;;;;;;;;;;5025520;28;20211;-83
2022/06/05 14:39:11;;;;;;;4.00;3.70;;;;;;;;;;5012312;28;20218;-83
2022/06/05 14:41:39;;;;;;;3.78;3.58;;;;;;;;;;5023592;28;20176;-82
2022/06/05 14:44:16;;;;;;;4.13;3.83;;;;;;;;;;5030050;28;20561;-84
2022/06/05 14:46:49;;;;;;;3.80;3.50;;;;;;;;;;5021930;28;20199;-83
2022/06/05 14:49:21;;;;;;;6.32;3.60;;;;;;;;;;5026060;28;20194;-84
2022/06/05 14:52:02;;;;;;;4.15;3.42;;;;;;;;;;5023983;28;20661;-84
2022/06/05 14:57:51;;;;;;;4.00;3.70;;;;;;;;;;5032538;28;20277;-82
2022/06/05 15:00:05;;;;;;;3.95;3.65;;;;;;;;;;5031350;28;20576;-84
2022/06/05 15:02:34;;;;;;;3.80;3.50;;;;;;;;;;5024330;28;20190;-84
2022/06/05 15:05:18;;;;;;;3.80;3.50;;;;;;;;;;5035542;28;20328;-84
2022/06/05 15:07:48;;;;;;;3.75;3.45;;;;;;;;;;5027853;28;20696;-83
2022/06/05 15:10:21;;;;;;;3.60;3.33;;;;;;;;;;5025979;28;20225;-82
2022/06/05 15:12:50;;;;;;;4.32;3.70;;;;;;;;;;5025333;28;20269;-84
2022/06/05 15:15:19;;;;;;;3.47;3.17;;;;;;;;;;5022570;28;20190;-84
2022/06/05 15:17:46;;;;;;;3.55;3.28;;;;;;;;;;5034128;28;20272;-84
2022/06/05 15:20:20;;;;;;;3.70;3.40;;;;;;;;;;5007783;28;20190;-84
2022/06/05 15:23:12;;;;;;;3.47;3.25;;;;;;;;;;5012170;28;20182;-84